createdAt,value
2019-06-20T00:01:25.321Z,100592.49
2019-06-20T00:04:00.096Z,100595.21
2019-06-20T00:06:33.873Z,100597.41
2019-06-20T00:09:09.605Z,100596.36
2019-06-20T00:11:53.407Z,100596.25
2019-06-20T00:14:41.646Z,100592.49
2019-06-20T00:17:29.790Z,100581.06
2019-06-20T00:20:16.427Z,100579.47
2019-06-20T00:22:50.574Z,100577.95
2019-06-20T00:25:24.484Z,100570.82
2019-06-20T00:28:18.528Z,100566.16
2019-06-20T00:31:04.828Z,100560.17
2019-06-20T00:33:57.526Z,100555.08
2019-06-20T00:36:31.358Z,100560.06
2019-06-20T00:39:05.913Z,100543.73
2019-06-20T00:41:39.773Z,100532.83
2019-06-20T00:44:13.315Z,100533.78
2019-06-20T00:46:55.262Z,100547.48
2019-06-20T00:49:28.813Z,100547.73
2019-06-20T00:52:02.012Z,100555.06
2019-06-20T00:54:35.734Z,100551.00
2019-06-20T00:57:10.091Z,100545.56
2019-06-20T00:59:55.106Z,100544.42
2019-06-20T01:02:29.778Z,100553.27
2019-06-20T01:05:03.661Z,100547.04
2019-06-20T01:07:39.336Z,100542.43
2019-06-20T01:10:24.395Z,100548.82
2019-06-20T01:12:58.299Z,100541.84
2019-06-20T01:15:32.061Z,100544.56
2019-06-20T01:18:05.723Z,100526.11
2019-06-20T01:20:51.513Z,100537.45
2019-06-20T01:23:25.117Z,100544.66
2019-06-20T01:25:59.407Z,100550.39
2019-06-20T01:28:44.686Z,100557.08
2019-06-20T01:31:33.090Z,100547.28
2019-06-20T01:34:06.876Z,100550.97
2019-06-20T01:36:54.971Z,100551.44
2019-06-20T01:39:40.714Z,100547.88
2019-06-20T01:42:27.395Z,100567.42
2019-06-20T01:45:13.369Z,100567.50
2019-06-20T01:47:59.995Z,100553.11
2019-06-20T01:50:34.263Z,100558.42
2019-06-20T01:53:07.718Z,100568.24
2019-06-20T01:55:40.977Z,100562.00
2019-06-20T01:58:25.001Z,100567.11
2019-06-20T02:01:14.814Z,100565.98
2019-06-20T02:04:01.133Z,100572.52
2019-06-20T02:06:45.861Z,100585.86
2019-06-20T02:09:23.002Z,100586.76
2019-06-20T02:12:15.644Z,100569.03
2019-06-20T02:15:02.032Z,100571.97
2019-06-20T02:17:36.487Z,100592.74
2019-06-20T02:20:32.295Z,100580.70
2019-06-20T02:23:06.332Z,100582.73
2019-06-20T02:25:52.424Z,100581.33
2019-06-20T02:28:26.227Z,100573.27
2019-06-20T02:31:11.422Z,100568.81
2019-06-20T02:33:44.298Z,100577.62
2019-06-20T02:36:29.185Z,100569.63
2019-06-20T02:39:02.778Z,100565.88
2019-06-20T02:41:37.913Z,100561.28
2019-06-20T02:44:28.461Z,100561.02
2019-06-20T02:46:46.562Z,100575.98
2019-06-20T02:49:20.154Z,100574.07
2019-06-20T02:51:54.108Z,100579.50
2019-06-20T02:54:28.507Z,100578.99
2019-06-20T02:57:02.239Z,100593.38
2019-06-20T02:59:36.756Z,100585.84
2019-06-20T03:02:10.202Z,100580.40
2019-06-20T03:04:45.755Z,100577.94
2019-06-20T03:07:37.381Z,100579.80
2019-06-20T03:10:11.228Z,100573.33
2019-06-20T03:13:03.363Z,100580.88
2019-06-20T03:15:36.933Z,100585.89
2019-06-20T03:18:10.530Z,100582.09
2019-06-20T03:20:43.774Z,100589.13
2019-06-20T03:23:17.315Z,100578.25
2019-06-20T03:25:56.566Z,100598.62
2019-06-20T03:28:29.755Z,100590.75
2019-06-20T03:31:03.906Z,100589.13
2019-06-20T03:33:55.715Z,100583.31
2019-06-20T03:36:28.931Z,100583.66
2019-06-20T03:39:02.297Z,100586.37
2019-06-20T03:41:37.560Z,100584.78
2019-06-20T03:44:11.806Z,100583.12
2019-06-20T03:46:49.012Z,100589.06
2019-06-20T03:49:34.985Z,100586.25
2019-06-20T03:52:25.235Z,100585.67
2019-06-20T03:54:59.134Z,100585.77
2019-06-20T03:57:34.492Z,100590.95
2019-06-20T04:00:19.645Z,100589.73
2019-06-20T04:02:53.347Z,100586.28
2019-06-20T04:05:26.840Z,100599.33
2019-06-20T04:08:01.133Z,100595.50
2019-06-20T04:10:35.906Z,100601.76
2019-06-20T04:13:28.200Z,100605.22
2019-06-20T04:16:01.744Z,100605.86
2019-06-20T04:18:35.977Z,100612.86
2019-06-20T04:21:27.371Z,100616.02
2019-06-20T04:24:18.853Z,100617.61
2019-06-20T04:26:51.594Z,100619.54
2019-06-20T04:29:43.118Z,100615.33
2019-06-20T04:32:16.780Z,100617.58
2019-06-20T04:34:51.871Z,100618.66
2019-06-20T04:37:25.576Z,100600.75
2019-06-20T04:40:00.303Z,100618.92
2019-06-20T04:42:36.855Z,100613.70
2019-06-20T04:45:41.765Z,100609.89
2019-06-20T04:48:15.401Z,100605.91
2019-06-20T04:50:48.879Z,100617.80
2019-06-20T04:53:22.449Z,100612.09
2019-06-20T04:55:56.006Z,100619.72
2019-06-20T04:58:29.606Z,100624.03
2019-06-20T05:01:03.606Z,100626.13
2019-06-20T05:03:37.251Z,100634.25
2019-06-20T05:06:11.294Z,100631.48
2019-06-20T05:08:45.094Z,100638.22
2019-06-20T05:11:34.311Z,100647.42
2019-06-20T05:14:18.478Z,100644.36
2019-06-20T05:16:51.702Z,100653.97
2019-06-20T05:19:26.802Z,100661.32
2019-06-20T05:22:00.236Z,100663.52
2019-06-20T05:24:33.805Z,100670.12
2019-06-20T05:27:07.344Z,100673.97
2019-06-20T05:29:40.906Z,100682.17
2019-06-20T05:32:14.797Z,100684.67
2019-06-20T05:34:48.191Z,100681.91
2019-06-20T05:37:21.723Z,100691.45
2019-06-20T05:39:55.365Z,100690.94
2019-06-20T05:42:32.345Z,100695.52
2019-06-20T05:45:06.991Z,100695.77
2019-06-20T05:47:49.996Z,100691.34
2019-06-20T05:50:23.512Z,100706.69
2019-06-20T05:52:57.069Z,100708.60
2019-06-20T05:55:30.619Z,100706.97
2019-06-20T05:58:04.190Z,100716.98
2019-06-20T06:00:37.543Z,100714.27
2019-06-20T06:03:13.642Z,100715.42
2019-06-20T06:05:46.208Z,100720.58
2019-06-20T06:08:19.439Z,100718.87
2019-06-20T06:11:11.866Z,100719.61
2019-06-20T06:14:01.493Z,100725.02
2019-06-20T06:16:34.709Z,100730.02
2019-06-20T06:19:08.708Z,100725.63
2019-06-20T06:21:42.423Z,100726.68
2019-06-20T06:24:25.663Z,100727.69
2019-06-20T06:27:00.096Z,100730.45
2019-06-20T06:29:34.019Z,100729.88
2019-06-20T06:32:07.700Z,100731.50
2019-06-20T06:34:41.212Z,100728.27
2019-06-20T06:37:14.786Z,100723.88
2019-06-20T06:39:48.472Z,100730.16
2019-06-20T06:42:21.991Z,100735.05
2019-06-20T06:44:55.565Z,100733.71
2019-06-20T06:47:28.772Z,100733.94
2019-06-20T06:50:12.009Z,100738.88
2019-06-20T06:52:45.224Z,100729.67
2019-06-20T06:55:18.654Z,100742.39
2019-06-20T06:57:52.269Z,100745.28
2019-06-20T07:00:25.815Z,100737.70
2019-06-20T07:02:59.434Z,100740.18
2019-06-20T07:05:43.583Z,100738.41
2019-06-20T07:08:17.539Z,100739.84
2019-06-20T07:10:51.135Z,100748.55
2019-06-20T07:13:24.786Z,100743.77
2019-06-20T07:16:08.239Z,100744.78
2019-06-20T07:18:41.479Z,100744.91
2019-06-20T07:21:15.360Z,100745.96
2019-06-20T07:23:48.916Z,100753.04
2019-06-20T07:26:22.162Z,100758.06
2019-06-20T07:28:55.751Z,100759.98
2019-06-20T07:31:29.460Z,100763.80
2019-06-20T07:34:03.006Z,100769.75
2019-06-20T07:36:37.593Z,100772.52
2019-06-20T07:39:24.311Z,100784.33
2019-06-20T07:42:11.322Z,100785.47
2019-06-20T07:44:45.148Z,100779.16
2019-06-20T07:47:19.065Z,100781.45
2019-06-20T07:49:53.707Z,100783.23
2019-06-20T07:52:39.724Z,100787.22
2019-06-20T07:55:14.481Z,100787.35
2019-06-20T07:57:48.037Z,100790.73
2019-06-20T08:00:21.767Z,100790.73
2019-06-20T08:02:55.141Z,100793.64
2019-06-20T08:05:29.438Z,100795.03
2019-06-20T08:08:03.038Z,100803.86
2019-06-20T08:10:37.016Z,100804.07
2019-06-20T08:13:24.326Z,100802.33
2019-06-20T08:15:59.038Z,100813.08
2019-06-20T08:18:50.569Z,100797.34
2019-06-20T08:21:36.428Z,100807.19
2019-06-20T08:24:09.653Z,100804.13
2019-06-20T08:26:43.412Z,100806.48
2019-06-20T08:29:21.056Z,100803.70
2019-06-20T08:31:52.070Z,100798.09
2019-06-20T08:34:25.758Z,100805.23
2019-06-20T08:37:00.501Z,100814.00
2019-06-20T08:39:34.105Z,100813.17
2019-06-20T08:42:16.958Z,100816.23
2019-06-20T08:44:50.549Z,100818.23
2019-06-20T08:47:23.924Z,100815.98
2019-06-20T08:49:58.182Z,100825.81
2019-06-20T08:52:32.579Z,100823.95
2019-06-20T08:55:07.948Z,100821.33
2019-06-20T08:57:41.485Z,100815.45
2019-06-20T09:00:16.164Z,100810.25
2019-06-20T09:05:55.475Z,100815.75
2019-06-20T09:08:30.355Z,100822.16
2019-06-20T09:11:15.670Z,100833.96
2019-06-20T09:13:53.761Z,100835.16
2019-06-20T09:16:28.220Z,100835.71
2019-06-20T09:19:14.851Z,100838.27
2019-06-20T09:22:02.263Z,100839.00
2019-06-20T09:24:37.524Z,100835.80
2019-06-20T09:27:12.514Z,100834.28
2019-06-20T09:30:00.410Z,100842.98
2019-06-20T09:32:34.856Z,100839.94
2019-06-20T09:35:10.035Z,100839.16
2019-06-20T09:37:44.412Z,100838.07
2019-06-20T09:40:30.951Z,100838.48
2019-06-20T09:43:27.673Z,100855.09
2019-06-20T09:46:07.890Z,100855.39
2019-06-20T09:48:46.811Z,100859.39
2019-06-20T09:51:30.528Z,100853.84
2019-06-20T09:54:03.512Z,100863.27
2019-06-20T09:56:37.020Z,100864.20
2019-06-20T09:59:26.913Z,100861.64
2019-06-20T10:01:58.960Z,100865.61
2019-06-20T10:04:37.942Z,100862.22
2019-06-20T10:07:29.061Z,100863.58
2019-06-20T10:10:05.419Z,100861.86
2019-06-20T10:12:59.494Z,100879.59
2019-06-20T10:15:38.243Z,100871.50
2019-06-20T10:18:22.590Z,100875.15
2019-06-20T10:21:16.142Z,100881.14
2019-06-20T10:23:52.029Z,100878.23
2019-06-20T10:26:49.608Z,100871.73
2019-06-20T10:29:24.183Z,100879.06
2019-06-20T10:31:57.828Z,100871.59
2019-06-20T10:34:31.564Z,100871.05
2019-06-20T10:37:05.124Z,100868.16
2019-06-20T10:39:38.077Z,100876.66
2019-06-20T10:42:24.390Z,100880.31
2019-06-20T10:44:57.637Z,100870.23
2019-06-20T10:47:35.113Z,100875.17
2019-06-20T10:50:09.326Z,100881.74
2019-06-20T10:52:43.661Z,100885.03
2019-06-20T10:55:19.707Z,100891.73
2019-06-20T10:57:53.042Z,100892.97
2019-06-20T11:00:44.617Z,100892.77
2019-06-20T11:03:20.274Z,100887.02
2019-06-20T11:06:14.216Z,100887.48
2019-06-20T11:08:47.936Z,100897.47
2019-06-20T11:11:31.214Z,100901.90
2019-06-20T11:14:21.661Z,100912.73
2019-06-20T11:17:04.928Z,100898.08
2019-06-20T11:19:39.739Z,100907.45
2019-06-20T11:22:13.057Z,100893.67
2019-06-20T11:24:47.425Z,100902.04
2019-06-20T11:27:33.375Z,100913.62
2019-06-20T11:30:07.965Z,100921.58
2019-06-20T11:32:41.202Z,100914.08
2019-06-20T11:35:26.370Z,100912.62
2019-06-20T11:38:00.365Z,100911.78
2019-06-20T11:40:33.585Z,100905.92
2019-06-20T11:43:06.978Z,100897.50
2019-06-20T11:45:41.284Z,100904.66
2019-06-20T11:48:26.879Z,100897.89
2019-06-20T11:51:00.239Z,100900.16
2019-06-20T11:53:35.281Z,100904.06
2019-06-20T11:56:09.067Z,100896.06
2019-06-20T11:58:42.385Z,100906.39
2019-06-20T12:01:15.626Z,100912.30
2019-06-20T12:03:49.058Z,100909.93
2019-06-20T12:06:22.463Z,100899.34
2019-06-20T12:09:13.572Z,100901.46
2019-06-20T12:11:48.783Z,100904.16
2019-06-20T12:14:24.149Z,100910.69
2019-06-20T12:16:57.686Z,100903.75
2019-06-20T12:19:30.959Z,100897.62
2019-06-20T12:22:10.319Z,100903.97
2019-06-20T12:24:55.765Z,100914.91
2019-06-20T12:27:29.641Z,100912.45
2019-06-20T12:30:06.781Z,100913.09
2019-06-20T12:32:55.156Z,100906.82
2019-06-20T12:35:46.901Z,100905.13
2019-06-20T12:38:46.227Z,100901.26
2019-06-20T12:41:45.608Z,100898.61
2019-06-20T12:44:31.844Z,100891.17
2019-06-20T12:47:05.054Z,100895.61
2019-06-20T12:49:40.114Z,100891.86
2019-06-20T12:52:14.886Z,100900.16
2019-06-20T12:54:49.154Z,100902.67
2019-06-20T12:57:23.134Z,100893.45
2019-06-20T13:00:13.310Z,100886.00
2019-06-20T13:02:59.028Z,100885.51
2019-06-20T13:05:33.395Z,100890.18
2019-06-20T13:08:13.548Z,100886.45
2019-06-20T13:10:46.266Z,100882.06
2019-06-20T13:13:20.309Z,100883.42
2019-06-20T13:16:07.187Z,100884.73
2019-06-20T13:18:41.378Z,100882.24
2019-06-20T13:21:18.959Z,100889.21
2019-06-20T13:23:56.242Z,100877.22
2019-06-20T13:26:29.716Z,100881.41
2019-06-20T13:29:04.439Z,100881.88
2019-06-20T13:31:54.862Z,100890.47
2019-06-20T13:34:13.792Z,100879.88
2019-06-20T13:36:47.072Z,100888.44
2019-06-20T13:39:20.624Z,100887.29
2019-06-20T13:41:53.651Z,100889.84
2019-06-20T13:44:39.594Z,100886.30
2019-06-20T13:47:23.743Z,100887.09
2019-06-20T13:49:57.331Z,100891.17
2019-06-20T13:52:33.962Z,100890.02
2019-06-20T13:55:06.514Z,100880.63
2019-06-20T13:57:52.938Z,100877.23
2019-06-20T14:00:27.557Z,100881.98
2019-06-20T14:03:01.453Z,100881.63
2019-06-20T14:05:34.868Z,100874.26
2019-06-20T14:08:11.381Z,100875.94
2019-06-20T14:10:46.046Z,100881.63
2019-06-20T14:13:19.936Z,100872.70
2019-06-20T14:15:53.810Z,100878.06
2019-06-20T14:18:27.617Z,100879.64
2019-06-20T14:21:00.827Z,100871.74
2019-06-20T14:23:34.324Z,100864.77
2019-06-20T14:26:26.590Z,100868.80
2019-06-20T14:29:12.836Z,100866.55
2019-06-20T14:31:47.445Z,100870.63
2019-06-20T14:34:20.857Z,100869.48
2019-06-20T14:36:56.219Z,100871.73
2019-06-20T14:39:30.093Z,100876.63
2019-06-20T14:42:03.336Z,100880.13
2019-06-20T14:44:36.675Z,100874.46
2019-06-20T14:47:11.096Z,100877.67
2019-06-20T14:49:46.007Z,100874.52
2019-06-20T14:52:19.548Z,100873.84
2019-06-20T14:54:54.004Z,100868.84
2019-06-20T14:57:46.970Z,100877.25
2019-06-20T15:00:22.389Z,100870.30
2019-06-20T15:02:58.226Z,100876.56
2019-06-20T15:05:30.721Z,100878.69
2019-06-20T15:08:05.877Z,100888.96
2019-06-20T15:10:39.630Z,100886.08
2019-06-20T15:13:12.835Z,100880.95
2019-06-20T15:15:47.795Z,100881.00
2019-06-20T15:18:22.170Z,100878.38
2019-06-20T15:20:58.995Z,100884.13
2019-06-20T15:23:31.457Z,100894.39
2019-06-20T15:26:04.893Z,100915.46
2019-06-20T15:28:38.532Z,100915.51
2019-06-20T15:31:10.710Z,100913.67
2019-06-20T15:33:46.185Z,100917.27
2019-06-20T15:36:20.244Z,100924.28
2019-06-20T15:38:55.055Z,100935.55
2019-06-20T15:41:42.580Z,100936.92
2019-06-20T15:44:16.576Z,100942.63
2019-06-20T15:46:50.128Z,100938.59
2019-06-20T15:49:24.091Z,100937.67
2019-06-20T15:52:10.594Z,100929.34
2019-06-20T15:54:43.864Z,100932.88
2019-06-20T15:57:17.215Z,100925.70
2019-06-20T15:59:50.887Z,100931.47
2019-06-20T16:02:22.758Z,100920.81
2019-06-20T16:04:55.994Z,100921.64
2019-06-20T16:07:29.248Z,100924.64
2019-06-20T16:10:21.135Z,100930.26
2019-06-20T16:13:07.018Z,100931.50
2019-06-20T16:15:59.081Z,100926.96
2019-06-20T16:18:45.116Z,100932.30
2019-06-20T16:21:28.724Z,100923.91
2019-06-20T16:24:02.060Z,100931.06
2019-06-20T16:26:35.869Z,100934.20
2019-06-20T16:29:09.601Z,100932.48
2019-06-20T16:31:43.465Z,100935.00
2019-06-20T16:34:32.725Z,100930.12
2019-06-20T16:37:10.202Z,100933.66
2019-06-20T16:39:41.101Z,100942.95
2019-06-20T16:42:25.364Z,100947.69
2019-06-20T16:44:59.209Z,100936.84
2019-06-20T16:47:45.695Z,100923.64
2019-06-20T16:50:29.051Z,100915.05
2019-06-20T16:53:02.294Z,100928.27
2019-06-20T16:55:35.601Z,100918.03
2019-06-20T16:58:08.826Z,100919.36
2019-06-20T17:00:53.639Z,100916.22
2019-06-20T17:03:40.705Z,100921.58
2019-06-20T17:06:02.216Z,100926.28
2019-06-20T17:08:35.829Z,100933.50
2019-06-20T17:11:09.166Z,100929.66
2019-06-20T17:13:42.689Z,100929.52
2019-06-20T17:16:15.963Z,100928.38
2019-06-20T17:18:59.122Z,100941.78
2019-06-20T17:21:35.625Z,100938.87
2019-06-20T17:24:10.768Z,100936.14
2019-06-20T17:26:46.023Z,100927.55
2019-06-20T17:29:38.873Z,100931.87
2019-06-20T17:32:12.463Z,100929.45
2019-06-20T17:35:10.447Z,100929.25
2019-06-20T17:37:48.660Z,100928.84
2019-06-20T17:40:26.305Z,100928.69
2019-06-20T17:43:21.617Z,100930.55
2019-06-20T17:45:56.795Z,100928.51
2019-06-20T17:48:33.626Z,100932.58
2019-06-20T17:51:07.971Z,100936.30
2019-06-20T17:53:43.828Z,100940.03
2019-06-20T17:56:30.085Z,100931.62
2019-06-20T17:59:03.740Z,100927.92
2019-06-20T18:01:38.097Z,100927.73
2019-06-20T18:04:13.946Z,100933.33
2019-06-20T18:06:49.497Z,100943.20
2019-06-20T18:09:22.311Z,100954.14
2019-06-20T18:11:59.860Z,100939.34
2019-06-20T18:14:44.158Z,100954.44
2019-06-20T18:17:17.748Z,100957.42
2019-06-20T18:19:51.368Z,100955.22
2019-06-20T18:22:25.981Z,100955.45
2019-06-20T18:25:21.763Z,100958.51
2019-06-20T18:28:13.001Z,100953.66
2019-06-20T18:30:46.704Z,100957.73
2019-06-20T18:33:23.352Z,100968.06
2019-06-20T18:35:57.985Z,100966.03
2019-06-20T18:38:31.628Z,100954.47
2019-06-20T18:41:05.970Z,100971.27
2019-06-20T18:43:39.327Z,100965.79
2019-06-20T18:46:12.993Z,100965.84
2019-06-20T18:48:45.743Z,100970.48
2019-06-20T18:51:31.782Z,100967.66
2019-06-20T18:54:05.674Z,100957.11
2019-06-20T18:56:52.427Z,100972.95
2019-06-20T18:59:24.327Z,100974.77
2019-06-20T19:01:58.980Z,100975.87
2019-06-20T19:04:45.336Z,100983.63
2019-06-20T19:07:08.671Z,100976.52
2019-06-20T19:09:54.802Z,100976.83
2019-06-20T19:12:31.590Z,100980.10
2019-06-20T19:15:07.774Z,100985.30
2019-06-20T19:18:03.872Z,101010.41
2019-06-20T19:20:50.163Z,101017.19
2019-06-20T19:23:25.429Z,101025.55
2019-06-20T19:25:59.228Z,101035.88
2019-06-20T19:28:32.740Z,101047.45
2019-06-20T19:31:06.131Z,101049.20
2019-06-20T19:33:51.948Z,101056.24
2019-06-20T19:36:28.314Z,101055.39
2019-06-20T19:39:14.434Z,101061.33
2019-06-20T19:42:07.757Z,101067.95
2019-06-20T19:44:42.777Z,101081.25
2019-06-20T19:47:17.792Z,101086.32
2019-06-20T19:49:51.706Z,101091.30
2019-06-20T19:52:25.550Z,101096.25
2019-06-20T19:55:02.234Z,101103.39
2019-06-20T19:57:41.723Z,101112.98
2019-06-20T20:00:17.785Z,101125.55
2019-06-20T20:03:01.396Z,101132.64
2019-06-20T20:05:35.579Z,101145.00
2019-06-20T20:08:24.974Z,101152.67
2019-06-20T20:11:03.247Z,101164.92
2019-06-20T20:13:36.877Z,101165.67
2019-06-20T20:16:20.760Z,101174.75
2019-06-20T20:19:04.449Z,101165.55
2019-06-20T20:21:37.878Z,101164.79
2019-06-20T20:24:11.335Z,101173.22
2019-06-20T20:26:45.030Z,101172.41
2019-06-20T20:29:18.966Z,101177.87
2019-06-20T20:31:53.758Z,101170.78
2019-06-20T20:34:29.767Z,101176.23
2019-06-20T20:37:23.678Z,101178.43
2019-06-20T20:40:00.834Z,101174.88
2019-06-20T20:42:35.507Z,101179.24
2019-06-20T20:45:10.078Z,101178.16
2019-06-20T20:47:56.249Z,101181.69
2019-06-20T20:50:35.152Z,101178.16
2019-06-20T20:53:08.741Z,101179.80
2019-06-20T20:55:42.364Z,101180.58
2019-06-20T20:58:16.751Z,101181.69
2019-06-20T21:01:22.188Z,101191.45
2019-06-20T21:04:14.012Z,101190.94
2019-06-20T21:06:48.029Z,101195.81
2019-06-20T21:09:34.133Z,101210.52
2019-06-20T21:12:07.143Z,101205.34
2019-06-20T21:14:44.945Z,101206.18
2019-06-20T21:17:38.447Z,101218.19
2019-06-20T21:20:11.869Z,101222.50
2019-06-20T21:22:45.253Z,101227.67
2019-06-20T21:25:20.294Z,101235.83
2019-06-20T21:27:53.207Z,101236.10
2019-06-20T21:30:27.516Z,101242.63
2019-06-20T21:33:12.785Z,101247.00
2019-06-20T21:35:46.354Z,101239.06
2019-06-20T21:38:31.209Z,101244.28
2019-06-20T21:41:05.740Z,101248.86
2019-06-20T21:43:41.593Z,101255.14
2019-06-20T21:46:15.201Z,101257.30
2019-06-20T21:48:48.880Z,101249.96
2019-06-20T21:51:21.735Z,101261.64
2019-06-20T21:53:55.484Z,101263.23
2019-06-20T21:56:29.324Z,101275.73
2019-06-20T21:59:03.739Z,101281.17
2019-06-20T22:01:40.798Z,101284.41
2019-06-20T22:04:26.646Z,101287.19
2019-06-20T22:07:00.333Z,101289.88
2019-06-20T22:09:58.551Z,101288.30
2019-06-20T22:12:34.438Z,101289.11
2019-06-20T22:15:08.950Z,101281.20
2019-06-20T22:17:54.883Z,101287.78
2019-06-20T22:20:34.463Z,101290.98
2019-06-20T22:23:12.132Z,101283.66
2019-06-20T22:25:45.766Z,101284.41
2019-06-20T22:28:31.312Z,101288.83
2019-06-20T22:31:05.040Z,101298.23
2019-06-20T22:33:38.247Z,101293.58
2019-06-20T22:36:11.629Z,101304.64
2019-06-20T22:38:46.244Z,101300.55
2019-06-20T22:41:39.099Z,101304.91
2019-06-20T22:44:12.709Z,101300.99
2019-06-20T22:46:47.280Z,101296.36
2019-06-20T22:49:32.368Z,101289.31
2019-06-20T22:52:11.645Z,101296.52
2019-06-20T22:54:47.512Z,101288.07
2019-06-20T22:57:23.407Z,101305.17
2019-06-20T23:00:13.221Z,101306.86
2019-06-20T23:03:00.881Z,101302.27
2019-06-20T23:05:38.783Z,101303.98
2019-06-20T23:08:12.652Z,101312.13
2019-06-20T23:10:47.955Z,101307.81
2019-06-20T23:13:21.518Z,101309.42
2019-06-20T23:15:54.760Z,101304.47
2019-06-20T23:18:30.346Z,101315.91
2019-06-20T23:21:05.142Z,101315.37
2019-06-20T23:23:47.297Z,101308.26
2019-06-20T23:26:20.965Z,101304.39
2019-06-20T23:29:12.134Z,101305.45
2019-06-20T23:31:48.143Z,101305.45
2019-06-20T23:34:33.906Z,101295.66
2019-06-20T23:37:12.793Z,101307.63
2019-06-20T23:39:43.777Z,101307.63
2019-06-20T23:42:18.336Z,101308.61
2019-06-20T23:45:12.400Z,101308.44
2019-06-20T23:47:45.632Z,101311.89
2019-06-20T23:50:33.037Z,101297.89
2019-06-20T23:53:15.935Z,101297.03
2019-06-20T23:56:09.626Z,101336.48
2019-06-20T23:58:43.495Z,101305.36
